Virtuous Striker — C6XX6 — position and weather

sailwx.info

Track history (hours):
 
Tides and Currents Weather Stations Pressure Air Temp Water Temp Dewpoint Dewpoint Depression Visibility Wind Speed Wind Dir Waves Ship Positions

Virtuous Striker

Last reported at 2015-Jun-21 12:25 UTC. Time now 2015-Aug-01 13:52 UTC.
Position N 26°52' W 014°50'.
Warning: this ship's position is 41 days out of date.

Length 190 m; draft 10.6 m.

Type: Cargo ship. MMSI: 311025100.

Date/timePositionNaut miles runAvg speedWind from/ knotsBaromVisibWave heightAir tempDewpointWater temp
2015-Jun-21 12:25N 26°52' W 014°50'910.7
2015-Jun-21 11:33N 26°59' W 014°42'4510.5
2015-Jun-21 07:17N 27°32' W 014°08'1910.8
2015-Jun-21 05:33N 27°47' W 013°55'1110.9
2015-Jun-21 04:33N 27°55' W 013°47'2410.7
2015-Jun-21 02:19N 28°14' W 013°31'810.6
2015-Jun-21 01:33N 28°21' W 013°26'1110.5
2015-Jun-21 00:31N 28°30' W 013°18'2110.4
2015-Jun-20 22:28N 28°47' W 013°04'1010.5
2015-Jun-20 21:33N 28°55' W 012°58'1310.6
2015-Jun-20 20:18N 29°06' W 012°49'810.8
2015-Jun-20 19:32N 29°12' W 012°43'18810.1
2015-Jun-20 01:03N 31°44' W 010°35'18710.4
2015-Jun-19 07:08N 34°07' W 008°13'2610.1
2015-Jun-19 04:33N 34°26' W 007°52'1010.1
2015-Jun-19 03:33N 34°34' W 007°43'12010.0
2015-Jun-18 15:32N 35°57' W 005°58'20 9.9
2015-Jun-18 13:33N 35°58' W 005°34'9 9.0
2015-Jun-18 12:33N 36°03' W 005°24'4 3.6
2015-Jun-18 11:33N 36°05' W 005°21'9 9.2
2015-Jun-18 10:32N 36°06' W 005°09'10110.1
2015-Jun-18 00:31N 36°18' W 003°05'1111.3
2015-Jun-17 23:33N 36°20' W 002°51'2210.9
2015-Jun-17 21:33N 36°24' W 002°24'1611.2
2015-Jun-17 20:09N 36°26' W 002°05'711.2
2015-Jun-17 19:33N 36°28' W 001°57'1310.9
2015-Jun-17 18:24N 36°30' W 001°42'910.9
2015-Jun-17 17:33N 36°30' W 001°30'1211.6
2015-Jun-17 16:33N 36°32' W 001°16'1111.4
2015-Jun-17 15:33N 36°34' W 001°02'1211.4
2015-Jun-17 14:31N 36°36' W 000°47'2311.4
2015-Jun-17 12:32N 36°39' W 000°19'1211.5
2015-Jun-17 11:31N 36°41' W 000°05'1111.4
2015-Jun-17 10:31N 36°42' E 000°09'1111.1
2015-Jun-17 09:33N 36°44' E 000°22'1111.1
2015-Jun-17 08:33N 36°45' E 000°36'1110.9
2015-Jun-17 07:33N 36°47' E 000°50'1410.8
2015-Jun-17 06:18N 36°49' E 001°06'810.6
2015-Jun-17 05:33N 36°51' E 001°16'44210.8
2015-Jun-15 12:33N 37°36' E 010°28'4410.7
2015-Jun-15 08:26N 37°23' E 011°21'1210.4
2015-Jun-15 07:16N 37°20' E 011°36'1310.6
2015-Jun-15 06:05N 37°17' E 011°51'510.5
2015-Jun-15 05:33N 37°15' E 011°58'1111.0
2015-Jun-15 04:33N 37°12' E 012°11'1111.3
2015-Jun-15 03:33N 37°09' E 012°25'1111.5
2015-Jun-15 02:33N 37°06' E 012°38'1110.7
2015-Jun-15 01:33N 37°03' E 012°51'1110.6
2015-Jun-15 00:33N 37°01' E 013°04'1210.3
2015-Jun-14 23:21N 36°57' E 013°19'1210.3
2015-Jun-14 22:08N 36°54' E 013°34'610.4
2015-Jun-14 21:33N 36°53' E 013°42'1110.5
2015-Jun-14 20:33N 36°50' E 013°54'1111.0
2015-Jun-14 19:33N 36°47' E 014°08'1110.9
2015-Jun-14 18:33N 36°44' E 014°21'1111.1
2015-Jun-14 17:33N 36°41' E 014°34'1111.0
2015-Jun-14 16:33N 36°38' E 014°47'1211.1
2015-Jun-14 15:31N 36°36' E 015°01'5610.8
2015-Jun-14 10:17N 37°16' E 015°51'1011.1
2015-Jun-14 09:23N 37°24' E 015°59'910.9
2015-Jun-14 08:33N 37°31' E 016°06'4710.8
2015-Jun-14 04:14N 38°08' E 016°41'  
Track history (hours):
 
Tides and Currents Weather Stations Pressure Air Temp Water Temp Dewpoint Dewpoint Depression Visibility Wind Speed Wind Dir Waves Ship Positions

Virtuous Striker

Last reported at 2015-Jun-21 12:25 UTC. Time now 2015-Aug-01 13:52 UTC.
Position N 26°52' W 014°50'.
Warning: this ship's position is 41 days out of date.

Length 190 m; draft 10.6 m.

Type: Cargo ship. MMSI: 311025100.

Date/timePositionNaut miles runAvg speedWind from/ knotsBaromVisibWave heightAir tempDewpointWater temp
2015-Jun-21 12:25N 26°52' W 014°50'910.7
2015-Jun-21 11:33N 26°59' W 014°42'4510.5
2015-Jun-21 07:17N 27°32' W 014°08'1910.8
2015-Jun-21 05:33N 27°47' W 013°55'1110.9
2015-Jun-21 04:33N 27°55' W 013°47'2410.7
2015-Jun-21 02:19N 28°14' W 013°31'810.6
2015-Jun-21 01:33N 28°21' W 013°26'1110.5
2015-Jun-21 00:31N 28°30' W 013°18'2110.4
2015-Jun-20 22:28N 28°47' W 013°04'1010.5
2015-Jun-20 21:33N 28°55' W 012°58'1310.6
2015-Jun-20 20:18N 29°06' W 012°49'810.8
2015-Jun-20 19:32N 29°12' W 012°43'18810.1
2015-Jun-20 01:03N 31°44' W 010°35'18710.4
2015-Jun-19 07:08N 34°07' W 008°13'2610.1
2015-Jun-19 04:33N 34°26' W 007°52'1010.1
2015-Jun-19 03:33N 34°34' W 007°43'12010.0
2015-Jun-18 15:32N 35°57' W 005°58'20 9.9
2015-Jun-18 13:33N 35°58' W 005°34'9 9.0
2015-Jun-18 12:33N 36°03' W 005°24'4 3.6
2015-Jun-18 11:33N 36°05' W 005°21'9 9.2
2015-Jun-18 10:32N 36°06' W 005°09'10110.1
2015-Jun-18 00:31N 36°18' W 003°05'1111.3
2015-Jun-17 23:33N 36°20' W 002°51'2210.9
2015-Jun-17 21:33N 36°24' W 002°24'1611.2
2015-Jun-17 20:09N 36°26' W 002°05'711.2
2015-Jun-17 19:33N 36°28' W 001°57'1310.9
2015-Jun-17 18:24N 36°30' W 001°42'910.9
2015-Jun-17 17:33N 36°30' W 001°30'1211.6
2015-Jun-17 16:33N 36°32' W 001°16'1111.4
2015-Jun-17 15:33N 36°34' W 001°02'1211.4
2015-Jun-17 14:31N 36°36' W 000°47'2311.4
2015-Jun-17 12:32N 36°39' W 000°19'1211.5
2015-Jun-17 11:31N 36°41' W 000°05'1111.4
2015-Jun-17 10:31N 36°42' E 000°09'1111.1
2015-Jun-17 09:33N 36°44' E 000°22'1111.1
2015-Jun-17 08:33N 36°45' E 000°36'1110.9
2015-Jun-17 07:33N 36°47' E 000°50'1410.8
2015-Jun-17 06:18N 36°49' E 001°06'810.6
2015-Jun-17 05:33N 36°51' E 001°16'44210.8
2015-Jun-15 12:33N 37°36' E 010°28'4410.7
2015-Jun-15 08:26N 37°23' E 011°21'1210.4
2015-Jun-15 07:16N 37°20' E 011°36'1310.6
2015-Jun-15 06:05N 37°17' E 011°51'510.5
2015-Jun-15 05:33N 37°15' E 011°58'1111.0
2015-Jun-15 04:33N 37°12' E 012°11'1111.3
2015-Jun-15 03:33N 37°09' E 012°25'1111.5
2015-Jun-15 02:33N 37°06' E 012°38'1110.7
2015-Jun-15 01:33N 37°03' E 012°51'1110.6
2015-Jun-15 00:33N 37°01' E 013°04'1210.3
2015-Jun-14 23:21N 36°57' E 013°19'1210.3
2015-Jun-14 22:08N 36°54' E 013°34'610.4
2015-Jun-14 21:33N 36°53' E 013°42'1110.5
2015-Jun-14 20:33N 36°50' E 013°54'1111.0
2015-Jun-14 19:33N 36°47' E 014°08'1110.9
2015-Jun-14 18:33N 36°44' E 014°21'1111.1
2015-Jun-14 17:33N 36°41' E 014°34'1111.0
2015-Jun-14 16:33N 36°38' E 014°47'1211.1
2015-Jun-14 15:31N 36°36' E 015°01'5610.8
2015-Jun-14 10:17N 37°16' E 015°51'1011.1
2015-Jun-14 09:23N 37°24' E 015°59'910.9
2015-Jun-14 08:33N 37°31' E 016°06'4710.8
2015-Jun-14 04:14N 38°08' E 016°41'  

Dump ship's entire track history